Time;durP1;ratioP1;P1;durP2;ratioP2;P2;SDS_P1;SDS_P2;PMS_P1;PMS_P2;Temp;Humidity;BMP_temperature;BMP_pressure;BME280_temperature;BME280_humidity;BME280_pressure;Samples;Min_cycle;Max_cycle;Signal;HPM_P1;HPM_P2
2023/05/14 00:02:17;;;;;;;16.38;7.40;;;;;;;;;;5056245;28;20044;-72
2023/05/14 00:04:43;;;;;;;18.08;7.00;;;;;;;;;;5054658;28;20048;-72
2023/05/14 00:07:09;;;;;;;14.05;6.03;;;;;;;;;;5055687;28;20051;-72
2023/05/14 00:09:35;;;;;;;13.57;6.22;;;;;;;;;;5056580;28;22001;-73
2023/05/14 00:12:01;;;;;;;8.75;5.95;;;;;;;;;;5055209;28;20835;-72
2023/05/14 00:14:27;;;;;;;15.88;7.15;;;;;;;;;;5061869;28;20042;-73
2023/05/14 00:16:53;;;;;;;14.88;5.85;;;;;;;;;;5039707;28;20052;-73
2023/05/14 00:19:19;;;;;;;14.32;7.10;;;;;;;;;;5055474;28;20400;-73
2023/05/14 00:21:46;;;;;;;13.23;6.50;;;;;;;;;;5057762;28;20051;-73
2023/05/14 00:24:12;;;;;;;12.70;7.13;;;;;;;;;;5056318;28;20044;-74
2023/05/14 00:26:39;;;;;;;15.15;6.28;;;;;;;;;;5035782;28;20044;-73
2023/05/14 00:29:05;;;;;;;14.38;6.53;;;;;;;;;;5038239;28;20044;-72
2023/05/14 00:31:31;;;;;;;16.00;6.57;;;;;;;;;;5056963;28;20053;-73
2023/05/14 00:33:57;;;;;;;19.92;7.45;;;;;;;;;;5071369;28;20056;-73
2023/05/14 00:36:23;;;;;;;14.90;7.00;;;;;;;;;;5055574;28;20052;-73
2023/05/14 00:38:49;;;;;;;20.02;7.30;;;;;;;;;;5057976;28;20036;-73
2023/05/14 00:41:15;;;;;;;16.23;6.90;;;;;;;;;;5055391;28;20042;-73
2023/05/14 00:43:41;;;;;;;15.18;6.97;;;;;;;;;;5055942;28;20032;-73
2023/05/14 00:46:07;;;;;;;18.40;7.32;;;;;;;;;;5054260;28;20040;-73
2023/05/14 00:48:37;;;;;;;14.70;6.85;;;;;;;;;;5053757;28;21279;-73
2023/05/14 00:51:03;;;;;;;21.52;7.30;;;;;;;;;;5054686;28;20127;-73
2023/05/14 00:53:29;;;;;;;15.55;7.50;;;;;;;;;;5051556;28;20113;-73
2023/05/14 00:55:55;;;;;;;18.25;7.38;;;;;;;;;;5052947;28;20047;-73
2023/05/14 00:58:22;;;;;;;16.38;7.15;;;;;;;;;;5037505;28;20048;-73
2023/05/14 01:00:48;;;;;;;16.85;8.00;;;;;;;;;;5056697;28;20040;-73
2023/05/14 01:03:14;;;;;;;19.58;7.55;;;;;;;;;;5055399;28;20043;-73
2023/05/14 01:05:43;;;;;;;20.90;7.80;;;;;;;;;;5057948;28;20083;-72
2023/05/14 01:08:17;;;;;;;18.88;8.05;;;;;;;;;;5056797;28;20050;-73
2023/05/14 01:10:59;;;;;;;19.08;8.00;;;;;;;;;;5056951;28;20040;-73
2023/05/14 01:13:25;;;;;;;20.08;7.60;;;;;;;;;;5058335;28;20172;-73
2023/05/14 01:15:53;;;;;;;22.73;9.02;;;;;;;;;;5056170;28;20043;-73
2023/05/14 01:18:20;;;;;;;14.90;8.60;;;;;;;;;;5056473;28;20427;-73
2023/05/14 01:20:50;;;;;;;20.95;8.98;;;;;;;;;;5057582;28;20097;-73
2023/05/14 01:23:16;;;;;;;20.48;8.38;;;;;;;;;;5058635;28;20157;-73
2023/05/14 01:25:42;;;;;;;19.38;8.27;;;;;;;;;;5062320;28;20093;-74
2023/05/14 01:28:28;;;;;;;23.30;9.18;;;;;;;;;;5063550;28;20040;-73
2023/05/14 01:31:01;;;;;;;23.25;9.65;;;;;;;;;;5061673;28;20112;-73
2023/05/14 01:33:28;;;;;;;18.48;8.98;;;;;;;;;;5058481;28;20052;-73
2023/05/14 01:35:55;;;;;;;11.80;8.68;;;;;;;;;;5061315;28;20075;-73
2023/05/14 01:38:22;;;;;;;25.52;9.68;;;;;;;;;;5060377;28;20066;-73
2023/05/14 01:40:49;;;;;;;16.98;8.68;;;;;;;;;;5060279;28;20040;-73
2023/05/14 01:43:16;;;;;;;16.13;8.23;;;;;;;;;;5072217;28;20052;-73
2023/05/14 01:45:43;;;;;;;29.23;9.30;;;;;;;;;;5056901;28;20465;-73
2023/05/14 01:48:09;;;;;;;18.52;8.98;;;;;;;;;;5059027;28;22267;-73
2023/05/14 01:50:35;;;;;;;15.25;8.88;;;;;;;;;;5058470;28;20040;-73
2023/05/14 01:53:01;;;;;;;22.33;9.77;;;;;;;;;;5060941;28;21181;-73
2023/05/14 01:55:27;;;;;;;19.50;10.23;;;;;;;;;;5059842;28;20040;-73
2023/05/14 01:57:54;;;;;;;17.65;9.57;;;;;;;;;;5058384;28;20615;-73
2023/05/14 02:00:20;;;;;;;13.15;8.65;;;;;;;;;;5074438;28;20640;-73
2023/05/14 02:02:46;;;;;;;21.95;9.90;;;;;;;;;;5060281;28;20098;-73
2023/05/14 02:05:12;;;;;;;21.33;9.48;;;;;;;;;;5073665;28;22237;-73
2023/05/14 02:07:39;;;;;;;17.10;8.57;;;;;;;;;;5059314;28;20044;-70
2023/05/14 02:10:05;;;;;;;26.27;9.80;;;;;;;;;;5059875;28;21924;-73
2023/05/14 02:12:31;;;;;;;22.55;8.73;;;;;;;;;;5041239;28;20048;-73
2023/05/14 02:14:57;;;;;;;21.17;8.43;;;;;;;;;;5057667;28;20047;-71
2023/05/14 02:17:24;;;;;;;19.08;8.38;;;;;;;;;;5058453;28;20088;-71
2023/05/14 02:19:50;;;;;;;26.48;9.73;;;;;;;;;;5073846;28;20044;-71
2023/05/14 02:22:16;;;;;;;21.08;8.23;;;;;;;;;;5061974;28;20048;-71
2023/05/14 02:24:42;;;;;;;23.73;8.30;;;;;;;;;;5068250;28;20059;-72
2023/05/14 02:27:08;;;;;;;21.23;7.68;;;;;;;;;;5068032;28;20058;-72
2023/05/14 02:29:34;;;;;;;25.17;9.35;;;;;;;;;;5044195;28;20163;-71
2023/05/14 02:32:00;;;;;;;21.98;9.07;;;;;;;;;;5063437;28;20052;-72
2023/05/14 02:34:26;;;;;;;27.02;8.52;;;;;;;;;;5060535;28;22009;-72
2023/05/14 02:36:53;;;;;;;22.50;8.65;;;;;;;;;;5076399;28;20219;-72
2023/05/14 02:39:19;;;;;;;30.90;8.70;;;;;;;;;;5059563;28;20093;-72
2023/05/14 02:41:45;;;;;;;23.05;9.13;;;;;;;;;;5058447;28;20048;-72
2023/05/14 02:44:11;;;;;;;22.67;9.25;;;;;;;;;;5058038;28;21858;-72
2023/05/14 02:46:37;;;;;;;26.08;10.25;;;;;;;;;;5057506;28;20044;-72
2023/05/14 02:49:03;;;;;;;29.77;10.77;;;;;;;;;;5056662;28;20837;-73
2023/05/14 02:51:29;;;;;;;25.00;9.48;;;;;;;;;;5057914;28;20036;-72
2023/05/14 02:53:55;;;;;;;29.27;10.07;;;;;;;;;;5052322;28;20043;-72
2023/05/14 02:56:21;;;;;;;27.92;9.43;;;;;;;;;;5054330;28;20039;-73
2023/05/14 02:58:47;;;;;;;29.15;10.90;;;;;;;;;;5055719;28;20406;-72
2023/05/14 03:01:13;;;;;;;25.55;9.82;;;;;;;;;;5053900;28;20032;-72
2023/05/14 03:03:39;;;;;;;25.38;10.20;;;;;;;;;;5055528;28;20036;-72
2023/05/14 03:06:06;;;;;;;24.50;10.70;;;;;;;;;;5054832;28;20083;-72
2023/05/14 03:08:32;;;;;;;24.25;11.27;;;;;;;;;;5052693;28;20064;-73
2023/05/14 03:10:59;;;;;;;18.88;10.68;;;;;;;;;;5054876;28;20066;-72
2023/05/14 03:13:25;;;;;;;32.25;10.95;;;;;;;;;;5052799;28;20045;-73
2023/05/14 03:15:53;;;;;;;31.20;10.38;;;;;;;;;;5057574;28;20043;-72
2023/05/14 03:18:20;;;;;;;34.83;11.60;;;;;;;;;;5053163;28;20097;-73
2023/05/14 03:20:46;;;;;;;25.17;11.15;;;;;;;;;;5055797;28;20051;-72
2023/05/14 03:23:13;;;;;;;37.10;13.18;;;;;;;;;;5053273;28;20039;-72
2023/05/14 03:25:39;;;;;;;26.08;12.27;;;;;;;;;;5054226;28;20044;-72
2023/05/14 03:28:05;;;;;;;30.02;12.60;;;;;;;;;;5054625;28;20040;-72
2023/05/14 03:30:32;;;;;;;31.45;14.55;;;;;;;;;;5053561;28;20047;-72
2023/05/14 03:32:58;;;;;;;33.28;14.90;;;;;;;;;;5054838;28;20048;-72
2023/05/14 03:35:24;;;;;;;33.20;16.63;;;;;;;;;;5052030;28;20182;-72
2023/05/14 03:37:51;;;;;;;33.70;16.98;;;;;;;;;;5057271;28;20040;-72
2023/05/14 03:40:18;;;;;;;30.30;16.20;;;;;;;;;;5054714;28;20071;-72
2023/05/14 03:42:44;;;;;;;32.15;16.65;;;;;;;;;;5036280;28;20524;-72
2023/05/14 03:45:10;;;;;;;43.00;16.30;;;;;;;;;;5051278;28;20043;-72
2023/05/14 03:47:36;;;;;;;31.48;16.05;;;;;;;;;;5053388;28;20044;-72
2023/05/14 03:50:02;;;;;;;37.22;17.40;;;;;;;;;;5052544;28;20516;-72
2023/05/14 03:52:28;;;;;;;31.25;16.90;;;;;;;;;;5055252;28;20040;-72
2023/05/14 03:54:55;;;;;;;39.40;18.05;;;;;;;;;;5053199;28;20056;-72
2023/05/14 03:57:21;;;;;;;34.65;16.05;;;;;;;;;;5053786;28;20044;-72
2023/05/14 03:59:47;;;;;;;32.75;15.68;;;;;;;;;;5056749;28;22719;-72
2023/05/14 04:02:13;;;;;;;33.20;15.38;;;;;;;;;;5049227;28;20051;-72
2023/05/14 04:04:39;;;;;;;30.95;13.93;;;;;;;;;;5054020;28;20567;-73
2023/05/14 04:07:05;;;;;;;24.38;12.00;;;;;;;;;;5052211;28;20563;-72
2023/05/14 04:09:32;;;;;;;30.80;12.30;;;;;;;;;;5052051;28;20046;-72
2023/05/14 04:11:58;;;;;;;30.00;11.70;;;;;;;;;;5053781;28;20077;-72
2023/05/14 04:14:24;;;;;;;28.75;11.93;;;;;;;;;;5053097;28;20129;-72
2023/05/14 04:16:50;;;;;;;36.35;13.32;;;;;;;;;;5052648;28;20035;-72
2023/05/14 04:19:16;;;;;;;30.98;13.32;;;;;;;;;;5052172;28;21966;-72
2023/05/14 04:21:42;;;;;;;30.42;12.88;;;;;;;;;;5052446;28;20055;-72
2023/05/14 04:24:08;;;;;;;27.83;12.45;;;;;;;;;;5053619;28;20044;-72
2023/05/14 04:26:34;;;;;;;32.47;12.85;;;;;;;;;;5053371;28;20044;-72
2023/05/14 04:29:02;;;;;;;28.15;13.75;;;;;;;;;;5053391;28;20036;-72
2023/05/14 04:31:28;;;;;;;31.45;13.05;;;;;;;;;;5054027;28;20427;-72
2023/05/14 04:33:54;;;;;;;33.30;13.82;;;;;;;;;;5053243;28;20110;-72
2023/05/14 04:36:22;;;;;;;26.20;12.30;;;;;;;;;;5052948;28;20130;-72
2023/05/14 04:38:48;;;;;;;27.70;12.63;;;;;;;;;;5052611;28;20166;-72
2023/05/14 04:41:14;;;;;;;30.40;13.63;;;;;;;;;;5054312;28;20049;-72
2023/05/14 04:43:40;;;;;;;28.23;12.38;;;;;;;;;;5051165;28;21989;-72
2023/05/14 04:46:06;;;;;;;33.33;13.75;;;;;;;;;;5048877;28;20470;-72
2023/05/14 04:48:32;;;;;;;18.40;11.90;;;;;;;;;;5051158;28;20124;-72
2023/05/14 04:50:58;;;;;;;31.65;12.45;;;;;;;;;;5056018;28;20518;-73
2023/05/14 04:53:24;;;;;;;34.88;12.80;;;;;;;;;;5056103;28;20392;-72
2023/05/14 04:55:50;;;;;;;39.40;13.13;;;;;;;;;;5053764;28;20092;-72
2023/05/14 04:58:17;;;;;;;28.40;11.63;;;;;;;;;;5055778;28;20166;-72
2023/05/14 05:00:43;;;;;;;33.53;13.07;;;;;;;;;;5055971;28;20135;-72
2023/05/14 05:03:09;;;;;;;24.77;11.40;;;;;;;;;;5056703;28;20400;-72
2023/05/14 05:05:35;;;;;;;28.60;13.32;;;;;;;;;;5071426;28;20051;-73
2023/05/14 05:08:01;;;;;;;25.13;11.35;;;;;;;;;;5052663;28;20051;-73
2023/05/14 05:10:27;;;;;;;23.08;11.15;;;;;;;;;;5055136;28;20064;-72
2023/05/14 05:12:53;;;;;;;26.58;11.75;;;;;;;;;;5057144;28;20050;-73
2023/05/14 05:15:19;;;;;;;30.85;11.38;;;;;;;;;;5053830;28;20039;-72
2023/05/14 05:17:46;;;;;;;36.67;12.50;;;;;;;;;;5055096;28;20865;-73
2023/05/14 05:20:12;;;;;;;27.77;10.95;;;;;;;;;;5055973;28;20046;-73
2023/05/14 05:22:38;;;;;;;22.75;10.32;;;;;;;;;;5051951;28;20052;-72
2023/05/14 05:25:05;;;;;;;25.92;11.68;;;;;;;;;;5050651;28;20047;-72
2023/05/14 05:27:34;;;;;;;22.80;10.90;;;;;;;;;;5051106;28;20056;-73
2023/05/14 05:30:01;;;;;;;27.95;10.63;;;;;;;;;;5049262;28;20105;-73
2023/05/14 05:32:27;;;;;;;30.17;9.73;;;;;;;;;;5067419;28;20108;-73
2023/05/14 05:34:53;;;;;;;28.23;9.52;;;;;;;;;;5053922;28;20067;-72
2023/05/14 05:37:19;;;;;;;16.98;8.70;;;;;;;;;;5053245;28;22242;-73
2023/05/14 05:39:47;;;;;;;26.85;9.13;;;;;;;;;;5050012;28;20178;-73
2023/05/14 05:42:13;;;;;;;21.40;9.68;;;;;;;;;;5058968;28;20096;-72
2023/05/14 05:44:39;;;;;;;27.08;10.60;;;;;;;;;;5053996;28;20851;-72
2023/05/14 05:47:05;;;;;;;21.60;8.73;;;;;;;;;;5053972;28;20036;-72
2023/05/14 05:49:31;;;;;;;22.52;8.75;;;;;;;;;;5051152;28;20042;-71
2023/05/14 05:51:57;;;;;;;21.08;8.90;;;;;;;;;;5053285;28;20040;-71
2023/05/14 05:54:24;;;;;;;25.95;10.05;;;;;;;;;;5051352;28;20044;-71
2023/05/14 05:56:50;;;;;;;23.98;9.05;;;;;;;;;;5051194;28;20058;-72
2023/05/14 05:59:16;;;;;;;19.33;8.55;;;;;;;;;;5070862;28;20044;-72
2023/05/14 06:01:42;;;;;;;25.13;8.65;;;;;;;;;;5056171;28;22158;-72
2023/05/14 06:04:09;;;;;;;23.75;8.48;;;;;;;;;;5056958;28;20040;-72
2023/05/14 06:06:35;;;;;;;16.35;8.27;;;;;;;;;;5042187;28;20066;-71
2023/05/14 06:09:01;;;;;;;23.08;8.75;;;;;;;;;;5066224;28;20040;-71
2023/05/14 06:11:27;;;;;;;24.13;8.70;;;;;;;;;;5047293;28;20040;-72
2023/05/14 06:13:54;;;;;;;23.52;9.63;;;;;;;;;;5066890;28;20060;-72
2023/05/14 06:16:20;;;;;;;17.50;8.60;;;;;;;;;;5067637;28;20036;-72
2023/05/14 06:18:46;;;;;;;23.30;7.88;;;;;;;;;;5064575;28;20072;-72
2023/05/14 06:21:12;;;;;;;23.33;8.93;;;;;;;;;;5063580;28;20043;-72
2023/05/14 06:23:38;;;;;;;17.48;7.68;;;;;;;;;;5061513;28;20048;-72
2023/05/14 06:26:04;;;;;;;20.02;7.85;;;;;;;;;;5060625;28;20051;-71
2023/05/14 06:28:30;;;;;;;17.35;7.13;;;;;;;;;;5060607;28;20478;-72
2023/05/14 06:30:56;;;;;;;19.73;7.63;;;;;;;;;;5058988;28;20067;-72
2023/05/14 06:33:29;;;;;;;19.48;8.02;;;;;;;;;;5056049;28;20047;-71
2023/05/14 06:35:55;;;;;;;20.63;7.32;;;;;;;;;;5054711;28;20136;-72
2023/05/14 06:38:21;;;;;;;16.50;7.13;;;;;;;;;;5063926;28;20070;-71
2023/05/14 06:40:47;;;;;;;14.68;7.15;;;;;;;;;;5056542;28;20044;-72
2023/05/14 06:43:13;;;;;;;22.42;7.00;;;;;;;;;;5053090;28;20191;-71
2023/05/14 06:45:39;;;;;;;14.18;7.45;;;;;;;;;;5053213;28;20044;-72
2023/05/14 06:48:06;;;;;;;19.77;7.40;;;;;;;;;;5055508;28;20044;-72
2023/05/14 06:50:32;;;;;;;15.90;6.63;;;;;;;;;;5056710;28;20044;-72
2023/05/14 06:52:58;;;;;;;21.48;6.60;;;;;;;;;;5056903;28;20052;-73
2023/05/14 06:55:24;;;;;;;16.55;6.60;;;;;;;;;;5056154;28;20047;-77
2023/05/14 06:57:50;;;;;;;19.77;7.28;;;;;;;;;;5061099;28;20048;-79
2023/05/14 07:00:16;;;;;;;19.48;7.40;;;;;;;;;;5060640;28;20727;-77
2023/05/14 07:02:43;;;;;;;13.60;6.60;;;;;;;;;;5056341;28;20170;-78
2023/05/14 07:05:09;;;;;;;14.52;6.47;;;;;;;;;;5060060;28;20044;-79
2023/05/14 07:07:35;;;;;;;14.43;7.45;;;;;;;;;;5061928;28;20050;-77
2023/05/14 07:10:01;;;;;;;17.10;6.57;;;;;;;;;;5061267;28;20135;-78
2023/05/14 07:12:28;;;;;;;11.13;6.53;;;;;;;;;;5063678;28;20062;-78
2023/05/14 07:14:55;;;;;;;17.63;7.30;;;;;;;;;;5061298;28;20047;-78
2023/05/14 07:17:21;;;;;;;15.65;7.57;;;;;;;;;;5071153;27;20127;-77
2023/05/14 07:19:48;;;;;;;14.40;6.80;;;;;;;;;;5037721;28;20080;-78
2023/05/14 07:22:14;;;;;;;19.15;7.88;;;;;;;;;;5058705;28;20121;-78
2023/05/14 07:24:40;;;;;;;13.90;7.40;;;;;;;;;;5058397;28;20050;-78
2023/05/14 07:27:07;;;;;;;16.35;8.27;;;;;;;;;;5055847;28;20582;-78
2023/05/14 07:29:33;;;;;;;14.98;8.73;;;;;;;;;;5068591;27;20492;-78
2023/05/14 07:32:00;;;;;;;22.73;8.15;;;;;;;;;;5052038;28;20078;-78
2023/05/14 07:34:26;;;;;;;17.95;8.00;;;;;;;;;;5049116;28;20145;-78
2023/05/14 07:36:52;;;;;;;15.68;8.90;;;;;;;;;;5051203;28;21641;-78
2023/05/14 07:39:19;;;;;;;15.35;8.57;;;;;;;;;;5056897;28;20044;-78
2023/05/14 07:41:45;;;;;;;14.73;8.52;;;;;;;;;;5055986;28;20052;-78
2023/05/14 07:44:11;;;;;;;14.35;8.40;;;;;;;;;;5056432;28;20082;-78
2023/05/14 07:46:37;;;;;;;20.70;8.40;;;;;;;;;;5054338;28;20052;-78
2023/05/14 07:49:03;;;;;;;18.23;8.32;;;;;;;;;;5050772;28;20044;-78
2023/05/14 07:51:32;;;;;;;14.20;8.15;;;;;;;;;;5054395;28;20045;-77
2023/05/14 07:53:58;;;;;;;16.63;7.90;;;;;;;;;;5056271;28;20049;-78
2023/05/14 07:56:24;;;;;;;18.38;7.47;;;;;;;;;;5056723;28;20498;-78
2023/05/14 07:58:50;;;;;;;20.20;9.18;;;;;;;;;;5054647;28;20041;-77
2023/05/14 08:01:17;;;;;;;12.68;8.05;;;;;;;;;;5054634;28;20060;-77
2023/05/14 08:03:43;;;;;;;13.65;8.07;;;;;;;;;;5054784;28;20075;-77
2023/05/14 08:06:09;;;;;;;18.48;8.10;;;;;;;;;;5052839;28;20996;-77
2023/05/14 08:08:35;;;;;;;15.77;8.15;;;;;;;;;;5055709;28;20131;-78
2023/05/14 08:11:02;;;;;;;15.05;7.88;;;;;;;;;;5055393;28;20087;-77
2023/05/14 08:13:28;;;;;;;15.50;8.07;;;;;;;;;;5052755;28;20067;-77
2023/05/14 08:15:55;;;;;;;22.30;9.48;;;;;;;;;;5058215;28;20075;-77
2023/05/14 08:18:21;;;;;;;12.38;8.27;;;;;;;;;;5054978;28;20271;-77
2023/05/14 08:20:47;;;;;;;15.30;8.68;;;;;;;;;;5055807;28;20094;-78
2023/05/14 08:23:13;;;;;;;13.32;8.43;;;;;;;;;;5052287;28;20044;-77
2023/05/14 08:25:40;;;;;;;15.27;8.75;;;;;;;;;;5057038;28;20048;-78
2023/05/14 08:28:06;;;;;;;14.10;9.55;;;;;;;;;;5066967;28;20139;-78
2023/05/14 08:30:32;;;;;;;17.25;9.65;;;;;;;;;;5053243;28;20388;-83
2023/05/14 08:32:58;;;;;;;13.70;9.00;;;;;;;;;;5051998;28;20047;-79
2023/05/14 08:35:25;;;;;;;16.55;9.40;;;;;;;;;;5051184;28;20048;-78
2023/05/14 08:37:51;;;;;;;16.55;9.52;;;;;;;;;;5064850;28;20466;-78
2023/05/14 08:40:17;;;;;;;13.35;10.48;;;;;;;;;;5051348;28;22085;-76
2023/05/14 08:42:44;;;;;;;13.95;9.52;;;;;;;;;;5052400;28;20483;-78
2023/05/14 08:45:13;;;;;;;18.65;10.27;;;;;;;;;;5051030;28;20040;-78
2023/05/14 08:47:39;;;;;;;15.20;10.48;;;;;;;;;;5051169;28;20893;-76
2023/05/14 08:50:07;;;;;;;13.90;9.75;;;;;;;;;;5050243;28;20044;-76
2023/05/14 08:52:33;;;;;;;16.70;9.63;;;;;;;;;;5063481;28;20059;-76
2023/05/14 08:55:00;;;;;;;16.52;10.20;;;;;;;;;;5049333;28;20069;-76
2023/05/14 08:57:27;;;;;;;18.95;9.70;;;;;;;;;;5051198;28;20105;-76
2023/05/14 08:59:53;;;;;;;13.05;9.82;;;;;;;;;;5031299;28;20751;-77
2023/05/14 09:02:22;;;;;;;20.45;10.38;;;;;;;;;;5030195;28;20261;-75
2023/05/14 09:04:49;;;;;;;15.93;9.20;;;;;;;;;;5049438;28;20044;-74
2023/05/14 09:07:15;;;;;;;15.10;10.23;;;;;;;;;;5052232;28;20794;-74
2023/05/14 09:09:43;;;;;;;14.13;9.60;;;;;;;;;;5052272;28;20131;-76
2023/05/14 09:12:09;;;;;;;14.00;9.25;;;;;;;;;;5048512;28;20059;-73
2023/05/14 09:14:36;;;;;;;19.80;9.57;;;;;;;;;;5049646;28;20471;-74
2023/05/14 09:17:02;;;;;;;14.63;9.15;;;;;;;;;;5047502;28;20090;-75
2023/05/14 09:19:29;;;;;;;16.35;9.13;;;;;;;;;;5048847;28;20032;-77
2023/05/14 09:21:57;;;;;;;16.13;9.73;;;;;;;;;;5049457;28;20056;-74
2023/05/14 09:24:24;;;;;;;19.58;10.00;;;;;;;;;;5047770;28;20048;-75
2023/05/14 09:26:54;;;;;;;15.63;8.65;;;;;;;;;;5048360;28;20052;-71
2023/05/14 09:29:20;;;;;;;11.85;8.77;;;;;;;;;;5050117;28;20045;-79
2023/05/14 09:31:49;;;;;;;15.82;9.45;;;;;;;;;;5048312;28;20392;-72
2023/05/14 09:34:29;;;;;;;12.80;7.65;;;;;;;;;;5047214;28;20052;-76
2023/05/14 09:36:58;;;;;;;11.65;7.97;;;;;;;;;;5048809;28;20400;-75
2023/05/14 09:39:25;;;;;;;16.77;8.60;;;;;;;;;;5034928;28;20069;-74
2023/05/14 09:41:51;;;;;;;10.02;7.57;;;;;;;;;;5048703;28;20456;-73
2023/05/14 09:44:18;;;;;;;9.18;7.90;;;;;;;;;;5054802;28;20052;-74
2023/05/14 09:46:45;;;;;;;10.85;8.13;;;;;;;;;;5055150;28;20097;-74
2023/05/14 09:49:11;;;;;;;10.05;7.70;;;;;;;;;;5057957;28;20492;-74
2023/05/14 09:51:37;;;;;;;14.05;6.82;;;;;;;;;;5081598;28;20040;-74
2023/05/14 09:54:05;;;;;;;10.70;7.68;;;;;;;;;;5080959;28;20524;-74
2023/05/14 09:56:32;;;;;;;9.98;6.82;;;;;;;;;;5080248;28;20033;-76
2023/05/14 09:58:58;;;;;;;12.93;6.78;;;;;;;;;;5068685;28;20156;-72
2023/05/14 10:01:24;;;;;;;6.40;5.75;;;;;;;;;;5063434;28;20117;-75
2023/05/14 10:03:52;;;;;;;11.65;7.07;;;;;;;;;;5054260;28;20047;-75
2023/05/14 10:06:20;;;;;;;10.45;6.63;;;;;;;;;;5074124;27;22670;-75
2023/05/14 10:08:48;;;;;;;10.48;6.47;;;;;;;;;;5058800;28;20127;-75
2023/05/14 10:11:23;;;;;;;12.07;6.60;;;;;;;;;;5056332;28;20522;-75
2023/05/14 10:14:06;;;;;;;14.15;6.63;;;;;;;;;;5071459;28;20057;-73
2023/05/14 10:16:43;;;;;;;9.27;6.25;;;;;;;;;;5055905;28;20044;-73
2023/05/14 10:19:10;;;;;;;11.55;7.22;;;;;;;;;;5052967;28;20055;-73
2023/05/14 10:21:37;;;;;;;8.60;6.05;;;;;;;;;;5055512;28;20064;-72
2023/05/14 10:24:04;;;;;;;12.55;5.90;;;;;;;;;;5056848;28;20488;-72
2023/05/14 10:26:37;;;;;;;9.90;5.65;;;;;;;;;;5052084;28;20047;-73
2023/05/14 10:29:04;;;;;;;9.48;5.70;;;;;;;;;;5054623;28;22183;-73
2023/05/14 10:31:46;;;;;;;7.63;6.07;;;;;;;;;;5053806;28;20916;-73
2023/05/14 10:34:42;;;;;;;9.60;6.18;;;;;;;;;;5051460;28;20554;-73
2023/05/14 10:37:27;;;;;;;6.60;5.25;;;;;;;;;;5053253;28;20111;-74
2023/05/14 10:39:54;;;;;;;10.57;5.97;;;;;;;;;;5055625;28;20121;-74
2023/05/14 10:42:21;;;;;;;7.82;5.72;;;;;;;;;;5056111;28;20058;-80
2023/05/14 10:44:49;;;;;;;10.48;5.63;;;;;;;;;;5051898;28;20069;-80
2023/05/14 10:47:17;;;;;;;6.68;5.00;;;;;;;;;;5056735;28;20044;-79
2023/05/14 10:49:44;;;;;;;9.60;5.20;;;;;;;;;;5054902;28;20052;-78
2023/05/14 10:52:11;;;;;;;16.58;5.40;;;;;;;;;;5054610;28;20851;-78
2023/05/14 10:54:38;;;;;;;5.85;4.50;;;;;;;;;;5049498;28;20078;-77
2023/05/14 10:57:09;;;;;;;5.63;4.80;;;;;;;;;;5056124;28;20070;-77
2023/05/14 10:59:35;;;;;;;6.80;4.65;;;;;;;;;;5056592;28;20047;-77
2023/05/14 11:02:04;;;;;;;9.00;4.63;;;;;;;;;;5054082;28;20067;-78
2023/05/14 11:04:31;;;;;;;8.63;4.97;;;;;;;;;;5055055;28;20043;-79
2023/05/14 11:06:57;;;;;;;12.85;5.03;;;;;;;;;;5055150;28;22310;-80
2023/05/14 11:09:23;;;;;;;8.05;5.50;;;;;;;;;;5051946;28;20102;-80
2023/05/14 11:11:50;;;;;;;9.48;5.40;;;;;;;;;;5054542;28;20155;-79
2023/05/14 11:14:16;;;;;;;11.80;5.32;;;;;;;;;;5056214;28;20169;-79
2023/05/14 11:16:42;;;;;;;8.27;4.50;;;;;;;;;;5057734;28;20044;-79
2023/05/14 11:19:08;;;;;;;9.60;5.35;;;;;;;;;;5055206;28;20051;-79
2023/05/14 11:21:34;;;;;;;7.38;6.15;;;;;;;;;;5055415;28;20549;-80
2023/05/14 11:24:00;;;;;;;7.53;5.30;;;;;;;;;;5055450;28;20605;-79
2023/05/14 11:26:26;;;;;;;10.15;5.72;;;;;;;;;;5053617;28;20093;-79
2023/05/14 11:28:52;;;;;;;9.50;6.50;;;;;;;;;;5050929;28;20052;-79
2023/05/14 11:31:18;;;;;;;10.27;6.47;;;;;;;;;;5054268;28;20060;-79
2023/05/14 11:33:45;;;;;;;10.80;6.55;;;;;;;;;;5054763;28;20052;-79
2023/05/14 11:36:11;;;;;;;9.30;5.07;;;;;;;;;;5040124;28;20060;-79
2023/05/14 11:38:47;;;;;;;7.50;5.13;;;;;;;;;;5053216;28;20048;-79
2023/05/14 11:41:14;;;;;;;6.45;4.93;;;;;;;;;;5052323;28;20048;-80
2023/05/14 11:43:40;;;;;;;6.97;5.20;;;;;;;;;;5053963;28;20052;-79
2023/05/14 11:46:06;;;;;;;9.82;4.75;;;;;;;;;;5032520;28;20059;-80
2023/05/14 11:48:33;;;;;;;6.28;5.50;;;;;;;;;;5053153;28;20036;-82
2023/05/14 11:50:59;;;;;;;10.90;6.07;;;;;;;;;;5055314;28;20102;-80
2023/05/14 11:53:26;;;;;;;8.82;5.82;;;;;;;;;;5051126;28;20531;-80
2023/05/14 11:55:59;;;;;;;6.93;5.25;;;;;;;;;;5052924;28;20122;-80
2023/05/14 11:58:25;;;;;;;13.52;7.70;;;;;;;;;;5053874;28;20051;-79
2023/05/14 12:00:52;;;;;;;10.90;6.93;;;;;;;;;;5053037;28;20052;-79
2023/05/14 12:03:24;;;;;;;14.05;6.07;;;;;;;;;;5053795;28;20050;-81
2023/05/14 12:06:00;;;;;;;10.43;6.55;;;;;;;;;;5056701;28;20060;-81
2023/05/14 12:09:01;;;;;;;11.98;7.57;;;;;;;;;;5069755;28;20039;-80
2023/05/14 12:11:31;;;;;;;11.73;7.32;;;;;;;;;;5058049;28;20063;-80
2023/05/14 12:13:58;;;;;;;9.05;7.50;;;;;;;;;;5055784;28;20478;-80
2023/05/14 12:16:30;;;;;;;12.35;7.18;;;;;;;;;;5056820;28;20078;-81
2023/05/14 12:19:00;;;;;;;10.40;7.00;;;;;;;;;;5055487;28;20139;-80
2023/05/14 12:21:27;;;;;;;13.90;6.88;;;;;;;;;;5057812;28;20050;-80
2023/05/14 12:23:56;;;;;;;11.38;6.50;;;;;;;;;;5056949;28;20045;-81
2023/05/14 12:26:22;;;;;;;13.27;6.55;;;;;;;;;;5056155;28;20051;-80
2023/05/14 12:28:48;;;;;;;9.75;5.57;;;;;;;;;;5060920;28;20044;-73
2023/05/14 12:31:15;;;;;;;9.02;4.70;;;;;;;;;;5055221;28;20036;-74
2023/05/14 12:33:41;;;;;;;9.90;6.05;;;;;;;;;;5057554;28;20051;-73
2023/05/14 12:36:07;;;;;;;8.45;6.07;;;;;;;;;;5057297;28;20500;-74
2023/05/14 12:38:33;;;;;;;8.07;5.25;;;;;;;;;;5059875;28;20120;-73
2023/05/14 12:40:59;;;;;;;15.43;7.70;;;;;;;;;;5057020;28;20048;-74
2023/05/14 12:43:30;;;;;;;12.52;6.75;;;;;;;;;;5056252;28;20058;-73
2023/05/14 12:45:56;;;;;;;9.85;6.13;;;;;;;;;;5056502;28;20403;-73
2023/05/14 12:48:22;;;;;;;6.72;5.03;;;;;;;;;;5075044;28;20126;-73
2023/05/14 12:50:48;;;;;;;13.02;6.47;;;;;;;;;;5057755;28;20044;-73
2023/05/14 12:53:15;;;;;;;11.02;7.20;;;;;;;;;;5055615;28;20423;-73
2023/05/14 12:55:41;;;;;;;7.65;6.85;;;;;;;;;;5056709;28;20649;-73
2023/05/14 12:58:07;;;;;;;13.50;7.03;;;;;;;;;;5062752;28;20040;-74
2023/05/14 13:00:33;;;;;;;11.18;6.95;;;;;;;;;;5062488;28;20119;-73
2023/05/14 13:02:59;;;;;;;14.32;7.18;;;;;;;;;;5059648;28;20052;-73
2023/05/14 13:05:25;;;;;;;12.23;7.55;;;;;;;;;;5060950;28;20558;-74
2023/05/14 13:07:52;;;;;;;16.25;7.45;;;;;;;;;;5059872;28;20175;-74
2023/05/14 13:10:18;;;;;;;10.70;6.50;;;;;;;;;;5060614;28;20044;-74
2023/05/14 13:12:45;;;;;;;11.00;6.55;;;;;;;;;;5063522;28;20044;-74
2023/05/14 13:15:11;;;;;;;14.57;6.68;;;;;;;;;;5059164;28;20087;-74
2023/05/14 13:17:37;;;;;;;9.38;6.70;;;;;;;;;;5074053;28;21628;-75
2023/05/14 13:20:03;;;;;;;11.98;6.65;;;;;;;;;;5061570;28;20045;-73
2023/05/14 13:22:29;;;;;;;9.95;6.93;;;;;;;;;;5059670;28;20060;-73
2023/05/14 13:24:55;;;;;;;16.08;6.78;;;;;;;;;;5063384;28;20058;-75
2023/05/14 13:27:21;;;;;;;11.50;6.07;;;;;;;;;;5076170;28;20056;-73
2023/05/14 13:29:48;;;;;;;11.90;6.15;;;;;;;;;;5037869;28;20086;-74
2023/05/14 13:32:14;;;;;;;10.10;7.32;;;;;;;;;;5039883;28;20051;-73
2023/05/14 13:34:42;;;;;;;11.35;6.97;;;;;;;;;;5054841;28;20093;-74
2023/05/14 13:37:09;;;;;;;8.88;6.63;;;;;;;;;;5057317;28;20048;-74
2023/05/14 13:39:35;;;;;;;8.95;7.13;;;;;;;;;;5072039;28;20028;-81
2023/05/14 13:42:01;;;;;;;10.82;7.22;;;;;;;;;;5084782;28;20044;-80
2023/05/14 13:44:28;;;;;;;15.68;6.95;;;;;;;;;;5084499;28;20051;-80
2023/05/14 13:46:54;;;;;;;9.70;7.45;;;;;;;;;;5088357;28;20534;-80
2023/05/14 13:49:20;;;;;;;13.13;8.30;;;;;;;;;;5089042;28;20048;-82
2023/05/14 13:51:46;;;;;;;12.27;8.15;;;;;;;;;;5105747;28;20048;-81
2023/05/14 13:54:12;;;;;;;10.70;7.65;;;;;;;;;;5077019;28;20108;-81
2023/05/14 13:56:39;;;;;;;14.07;8.30;;;;;;;;;;5078708;28;20048;-81
2023/05/14 13:59:05;;;;;;;10.63;7.93;;;;;;;;;;5068412;28;20076;-82
2023/05/14 14:01:31;;;;;;;14.10;7.22;;;;;;;;;;5062383;28;20040;-81
2023/05/14 14:03:57;;;;;;;13.63;7.20;;;;;;;;;;5057790;28;20045;-82
2023/05/14 14:06:26;;;;;;;10.55;7.65;;;;;;;;;;5050138;28;20058;-82
2023/05/14 14:08:52;;;;;;;12.98;7.50;;;;;;;;;;5051298;28;20052;-81
2023/05/14 14:11:18;;;;;;;9.52;7.22;;;;;;;;;;5053025;28;20135;-81
2023/05/14 14:13:44;;;;;;;9.85;7.35;;;;;;;;;;5035558;28;20047;-81
2023/05/14 14:16:10;;;;;;;8.48;7.28;;;;;;;;;;5053461;28;20070;-81
2023/05/14 14:18:36;;;;;;;8.32;7.53;;;;;;;;;;5056054;28;20072;-81
2023/05/14 14:21:02;;;;;;;11.52;7.47;;;;;;;;;;5054321;28;20047;-81
2023/05/14 14:23:28;;;;;;;11.07;7.50;;;;;;;;;;5052509;28;20041;-81
2023/05/14 14:25:54;;;;;;;10.40;8.48;;;;;;;;;;5045988;28;20614;-75
2023/05/14 14:28:20;;;;;;;12.95;8.75;;;;;;;;;;5045999;28;20597;-74